Time;durP1;ratioP1;P1;durP2;ratioP2;P2;SDS_P1;SDS_P2;PMS_P1;PMS_P2;Temp;Humidity;BMP_temperature;BMP_pressure;BME280_temperature;BME280_humidity;BME280_pressure;Samples;Min_cycle;Max_cycle;Signal;HPM_P1;HPM_P2
2022/06/27 00:00:49;;;;;;;8.52;1.50;;;15.20;99.90;;;;;;5081959;28;20517;-59
2022/06/27 00:03:16;;;;;;;11.88;2.28;;;15.20;99.90;;;;;;5088505;28;20287;-59
2022/06/27 00:05:43;;;;;;;8.32;2.35;;;15.20;99.90;;;;;;5080242;28;20552;-59
2022/06/27 00:08:10;;;;;;;11.57;1.63;;;15.20;99.90;;;;;;5076949;28;20139;-60
2022/06/27 00:10:37;;;;;;;9.70;1.35;;;15.20;99.90;;;;;;5087607;28;20123;-60
2022/06/27 00:13:03;;;;;;;11.32;2.30;;;15.20;99.90;;;;;;5077113;28;20044;-60
2022/06/27 00:15:30;;;;;;;6.55;1.85;;;15.10;99.90;;;;;;5079493;28;20135;-59
2022/06/27 00:17:57;;;;;;;8.25;1.40;;;15.10;99.90;;;;;;5089517;28;20070;-59
2022/06/27 00:20:24;;;;;;;7.22;1.35;;;15.10;99.90;;;;;;5075003;28;20048;-59
2022/06/27 00:22:52;;;;;;;11.70;1.60;;;15.10;99.90;;;;;;5082646;28;20068;-59
2022/06/27 00:25:19;;;;;;;15.43;3.67;;;15.10;99.90;;;;;;5074276;28;20044;-59
2022/06/27 00:27:46;;;;;;;5.70;1.23;;;15.20;99.90;;;;;;5083753;28;20504;-59
2022/06/27 00:30:13;;;;;;;9.38;1.38;;;15.20;99.90;;;;;;5074063;28;20048;-59
2022/06/27 00:32:40;;;;;;;9.18;1.55;;;15.20;99.90;;;;;;5082294;28;20102;-59
2022/06/27 00:35:08;;;;;;;8.23;1.38;;;15.20;99.90;;;;;;5074192;28;20527;-59
2022/06/27 00:37:35;;;;;;;9.00;2.13;;;15.20;99.90;;;;;;4731859;28;9999804;-59
2022/06/27 00:40:02;;;;;;;6.90;1.30;;;15.20;99.90;;;;;;5071731;28;20131;-59
2022/06/27 00:42:29;;;;;;;8.95;1.35;;;15.20;99.90;;;;;;5079006;28;20124;-59
2022/06/27 00:44:56;;;;;;;6.95;1.25;;;15.10;99.90;;;;;;5085477;28;20068;-59
2022/06/27 00:47:23;;;;;;;8.95;1.80;;;15.10;99.90;;;;;;5079070;28;20087;-59
2022/06/27 00:49:49;;;;;;;9.95;2.10;;;15.20;99.90;;;;;;5076291;28;20051;-59
2022/06/27 00:52:16;;;;;;;4.47;1.50;;;15.20;99.90;;;;;;5089310;28;20180;-59
2022/06/27 00:54:44;;;;;;;6.03;1.25;;;15.20;99.90;;;;;;5085216;28;20044;-59
2022/06/27 00:57:12;;;;;;;6.60;1.45;;;15.20;99.90;;;;;;5086958;28;20128;-58
2022/06/27 00:59:39;;;;;;;6.78;1.50;;;15.20;99.90;;;;;;5075725;28;20087;-59
2022/06/27 01:02:06;;;;;;;9.35;1.40;;;15.10;99.90;;;;;;5082391;28;20305;-58
2022/06/27 01:04:34;;;;;;;7.50;1.67;;;15.00;99.90;;;;;;5079814;28;20123;-59
2022/06/27 01:07:00;;;;;;;9.50;2.45;;;15.00;99.90;;;;;;5083230;28;20091;-59
2022/06/27 01:09:27;;;;;;;11.07;1.75;;;15.00;99.90;;;;;;5076613;28;20380;-60
2022/06/27 01:11:54;;;;;;;6.20;1.10;;;15.00;99.90;;;;;;5086093;28;20083;-58
2022/06/27 01:14:21;;;;;;;17.75;1.77;;;15.00;99.90;;;;;;5076612;28;20131;-58
2022/06/27 01:16:47;;;;;;;7.15;1.10;;;15.00;99.90;;;;;;5085406;28;20083;-58
2022/06/27 01:19:15;;;;;;;6.75;1.23;;;15.00;99.90;;;;;;5084920;28;20047;-59
2022/06/27 01:21:50;;;;;;;4.60;1.20;;;15.00;99.90;;;;;;5073571;28;20459;-58
2022/06/27 01:24:17;;;;;;;19.35;2.53;;;14.90;99.90;;;;;;5082934;28;20445;-59
2022/06/27 01:26:44;;;;;;;7.20;1.67;;;14.90;99.90;;;;;;5074123;28;20559;-59
2022/06/27 01:29:11;;;;;;;4.53;1.20;;;14.90;99.90;;;;;;5077710;28;20105;-59
2022/06/27 01:31:39;;;;;;;5.78;1.02;;;14.90;99.90;;;;;;5085043;28;20487;-59
2022/06/27 01:34:06;;;;;;;8.75;1.25;;;14.90;99.90;;;;;;5079978;28;20083;-59
2022/06/27 01:36:41;;;;;;;7.53;1.25;;;14.90;99.90;;;;;;5074333;28;20123;-58
2022/06/27 01:39:19;;;;;;;10.95;1.70;;;15.00;99.90;;;;;;5079535;28;20047;-59
2022/06/27 01:42:04;;;;;;;7.03;1.48;;;15.00;99.90;;;;;;5082148;28;20132;-59
2022/06/27 01:44:32;;;;;;;6.03;1.52;;;15.00;99.90;;;;;;5077551;28;20060;-60
2022/06/27 01:46:59;;;;;;;10.57;1.35;;;15.10;99.90;;;;;;5084731;28;20471;-60
2022/06/27 01:49:27;;;;;;;7.38;1.27;;;15.10;99.90;;;;;;5079109;28;20048;-59
2022/06/27 01:51:53;;;;;;;7.82;1.60;;;15.00;99.90;;;;;;5087139;28;20517;-60
2022/06/27 01:54:21;;;;;;;13.18;3.45;;;15.00;99.90;;;;;;5071586;28;20040;-57
2022/06/27 01:56:49;;;;;;;11.52;1.88;;;15.00;99.90;;;;;;5083614;28;20090;-60
2022/06/27 01:59:17;;;;;;;10.43;1.60;;;15.10;99.90;;;;;;5080704;28;20093;-58
2022/06/27 02:01:44;;;;;;;9.65;2.50;;;15.00;99.90;;;;;;5075218;28;20049;-58
2022/06/27 02:04:12;;;;;;;13.63;2.08;;;15.00;99.90;;;;;;5085062;28;20498;-58
2022/06/27 02:06:39;;;;;;;6.90;1.25;;;14.90;99.90;;;;;;5079108;28;20074;-58
2022/06/27 02:09:07;;;;;;;11.32;2.55;;;14.90;99.90;;;;;;5076260;28;20530;-59
2022/06/27 02:11:34;;;;;;;7.43;1.52;;;14.90;99.90;;;;;;5079325;28;20079;-59
2022/06/27 02:14:01;;;;;;;4.55;1.67;;;14.80;99.90;;;;;;5080414;28;20047;-59
2022/06/27 02:16:28;;;;;;;7.43;1.40;;;14.80;99.90;;;;;;5075408;28;20052;-58
2022/06/27 02:18:55;;;;;;;6.28;1.60;;;14.70;99.90;;;;;;5079211;28;20048;-59
2022/06/27 02:21:26;;;;;;;6.63;1.33;;;14.70;99.90;;;;;;5081721;28;20132;-59
2022/06/27 02:23:53;;;;;;;11.35;1.40;;;14.70;99.90;;;;;;5075511;28;20425;-60
2022/06/27 02:26:29;;;;;;;11.60;1.33;;;14.70;99.90;;;;;;5074577;28;20135;-60
2022/06/27 02:28:57;;;;;;;8.85;1.30;;;14.70;99.90;;;;;;5081583;28;20083;-59
2022/06/27 02:31:24;;;;;;;6.60;1.67;;;14.70;99.90;;;;;;5080894;28;20131;-60
2022/06/27 02:33:51;;;;;;;6.60;1.73;;;14.60;99.90;;;;;;5072172;28;20284;-59
2022/06/27 02:36:41;;;;;;;4.13;1.00;;;14.70;99.90;;;;;;5076643;28;20076;-58
2022/06/27 02:39:10;;;;;;;6.45;1.40;;;14.60;99.90;;;;;;5072163;28;20036;-58
2022/06/27 02:41:39;;;;;;;11.32;1.35;;;14.60;99.90;;;;;;5078397;28;20591;-57
2022/06/27 02:44:11;;;;;;;13.98;2.45;;;14.60;99.90;;;;;;5071400;28;20121;-59
2022/06/27 02:46:38;;;;;;;4.63;1.23;;;14.60;99.90;;;;;;5077318;28;20969;-59
2022/06/27 02:49:05;;;;;;;8.18;1.38;;;14.50;99.90;;;;;;5083058;28;20040;-58
2022/06/27 02:51:44;;;;;;;7.25;1.58;;;14.40;99.90;;;;;;5084016;28;20338;-59
2022/06/27 02:54:21;;;;;;;3.90;1.02;;;14.30;99.90;;;;;;5079211;28;20044;-58
2022/06/27 02:57:35;;;;;;;8.32;2.10;;;14.30;99.90;;;;;;5076706;28;20048;-59
2022/06/27 03:00:03;;;;;;;6.05;1.50;;;14.20;99.90;;;;;;5029476;28;20075;-59
2022/06/27 03:02:30;;;;;;;9.07;2.53;;;14.10;99.90;;;;;;5078384;28;20128;-60
2022/06/27 03:04:57;;;;;;;11.00;2.20;;;14.10;99.90;;;;;;5066321;28;20051;-59
2022/06/27 03:07:24;;;;;;;12.38;1.80;;;14.10;99.90;;;;;;5067620;28;20495;-59
2022/06/27 03:09:51;;;;;;;9.10;1.73;;;14.10;99.90;;;;;;5082697;28;20123;-58
2022/06/27 03:12:17;;;;;;;12.13;2.53;;;14.20;99.90;;;;;;5077241;28;20067;-59
2022/06/27 03:14:44;;;;;;;13.65;1.55;;;14.20;99.90;;;;;;5071242;28;20072;-59
2022/06/27 03:17:11;;;;;;;6.63;2.15;;;14.20;99.90;;;;;;5078823;28;20036;-59
2022/06/27 03:19:38;;;;;;;6.80;1.05;;;14.20;99.90;;;;;;5081871;28;20075;-59
2022/06/27 03:22:04;;;;;;;6.55;1.38;;;14.20;99.90;;;;;;5078692;28;20143;-59
2022/06/27 03:24:31;;;;;;;7.07;1.63;;;14.10;99.90;;;;;;5079861;28;20072;-59
2022/06/27 03:26:58;;;;;;;11.98;1.20;;;14.10;99.90;;;;;;5080245;28;20075;-59
2022/06/27 03:29:25;;;;;;;8.35;1.42;;;14.20;99.90;;;;;;5078159;28;20044;-59
2022/06/27 03:31:52;;;;;;;6.50;1.30;;;14.10;99.90;;;;;;5073914;28;20135;-59
2022/06/27 03:34:18;;;;;;;3.05;1.33;;;14.10;99.90;;;;;;5079542;28;20199;-59
2022/06/27 03:36:45;;;;;;;5.15;1.35;;;14.10;99.90;;;;;;5079029;28;20578;-59
2022/06/27 03:39:12;;;;;;;9.77;1.60;;;14.10;99.90;;;;;;5073568;28;20312;-58
2022/06/27 03:41:39;;;;;;;13.85;2.88;;;14.10;99.90;;;;;;5085816;28;20407;-61
2022/06/27 03:44:09;;;;;;;6.30;1.10;;;14.10;99.90;;;;;;5072363;28;20072;-58
2022/06/27 03:46:36;;;;;;;7.50;1.25;;;14.10;99.90;;;;;;5080040;28;20048;-58
2022/06/27 03:51:49;;;;;;;5.68;1.33;;;14.00;99.90;;;;;;5081673;28;20086;-58
2022/06/27 03:54:15;;;;;;;9.05;1.45;;;13.90;99.90;;;;;;5073152;28;20052;-58
2022/06/27 03:56:42;;;;;;;3.17;1.23;;;13.90;99.90;;;;;;5082838;28;20516;-58
2022/06/27 03:59:09;;;;;;;6.82;1.58;;;13.90;99.90;;;;;;5078882;28;20045;-59
2022/06/27 04:01:36;;;;;;;7.45;1.45;;;13.80;99.90;;;;;;5069560;28;20049;-58
2022/06/27 04:04:03;;;;;;;5.45;1.38;;;13.80;99.90;;;;;;5073356;28;20135;-59
2022/06/27 04:06:30;;;;;;;4.47;1.27;;;13.80;99.90;;;;;;5072272;28;20453;-59
2022/06/27 04:08:57;;;;;;;9.35;2.08;;;13.90;99.90;;;;;;5078402;28;20474;-59
2022/06/27 04:11:24;;;;;;;8.98;1.58;;;13.90;99.90;;;;;;5079876;28;20924;-59
2022/06/27 04:13:51;;;;;;;9.70;1.40;;;13.90;99.90;;;;;;5075759;28;20063;-60
2022/06/27 04:16:18;;;;;;;9.25;1.55;;;13.90;99.90;;;;;;5078349;28;20079;-60
2022/06/27 04:18:54;;;;;;;13.05;1.60;;;13.90;99.90;;;;;;5083239;28;20436;-59
2022/06/27 04:21:20;;;;;;;14.23;2.78;;;14.00;99.90;;;;;;5073665;28;20149;-58
2022/06/27 04:23:47;;;;;;;9.77;1.45;;;14.00;99.90;;;;;;5079050;28;20480;-59
2022/06/27 04:26:14;;;;;;;9.35;1.15;;;14.00;99.90;;;;;;5080466;28;20082;-59
2022/06/27 04:28:41;;;;;;;4.32;1.40;;;14.00;99.90;;;;;;5077837;28;20557;-59
2022/06/27 04:31:07;;;;;;;10.30;1.48;;;14.10;99.90;;;;;;5082629;28;20072;-59
2022/06/27 04:33:34;;;;;;;5.32;1.60;;;14.10;99.90;;;;;;5080903;28;20062;-59
2022/06/27 04:36:04;;;;;;;7.03;1.05;;;14.10;99.90;;;;;;5077139;28;20127;-59
2022/06/27 04:38:31;;;;;;;4.43;1.52;;;14.10;99.90;;;;;;5081082;28;20059;-58
2022/06/27 04:40:58;;;;;;;9.32;1.73;;;14.10;99.90;;;;;;5083462;28;20308;-60
2022/06/27 04:43:26;;;;;;;9.45;1.38;;;13.90;99.90;;;;;;5076739;28;20048;-59
2022/06/27 04:45:54;;;;;;;14.18;1.80;;;13.70;99.90;;;;;;5076822;28;20045;-59
2022/06/27 04:48:21;;;;;;;4.18;1.20;;;13.70;99.90;;;;;;5073935;28;20052;-59
2022/06/27 04:50:48;;;;;;;9.20;1.88;;;13.60;99.90;;;;;;5080254;28;20515;-59
2022/06/27 04:53:15;;;;;;;7.20;1.30;;;13.60;99.90;;;;;;5085558;28;20055;-58
2022/06/27 04:55:42;;;;;;;6.63;1.30;;;13.70;99.90;;;;;;5079473;28;20119;-59
2022/06/27 04:58:09;;;;;;;10.35;1.50;;;13.70;99.90;;;;;;5075315;28;20089;-58
2022/06/27 05:00:36;;;;;;;8.40;1.30;;;13.70;99.90;;;;;;5072078;28;20135;-59
2022/06/27 05:03:03;;;;;;;8.00;1.23;;;13.90;99.90;;;;;;5083747;28;20404;-58
2022/06/27 05:05:30;;;;;;;6.55;1.30;;;13.80;99.90;;;;;;5078865;28;20499;-58
2022/06/27 05:07:57;;;;;;;8.50;1.67;;;13.80;99.90;;;;;;5077777;28;20052;-60
2022/06/27 05:10:24;;;;;;;7.30;1.75;;;13.80;99.90;;;;;;5082651;28;20044;-59
2022/06/27 05:12:51;;;;;;;14.48;1.85;;;13.90;99.90;;;;;;5079866;28;20070;-63
2022/06/27 05:15:18;;;;;;;12.25;1.70;;;13.90;99.90;;;;;;5077302;28;20052;-60
2022/06/27 05:17:45;;;;;;;9.73;3.08;;;14.00;99.90;;;;;;5081863;28;20044;-60
2022/06/27 05:20:12;;;;;;;14.05;2.08;;;14.00;99.90;;;;;;5080852;28;20044;-59
2022/06/27 05:22:39;;;;;;;9.43;2.22;;;14.10;99.90;;;;;;5084127;28;20117;-59
2022/06/27 05:25:07;;;;;;;8.35;2.05;;;14.20;99.90;;;;;;5074000;28;20432;-58
2022/06/27 05:27:35;;;;;;;10.35;1.45;;;14.30;99.90;;;;;;5083058;28;20101;-60
2022/06/27 05:30:06;;;;;;;10.13;1.67;;;14.30;99.90;;;;;;5077059;28;20048;-60
2022/06/27 05:32:33;;;;;;;6.65;1.65;;;14.30;99.90;;;;;;5074849;28;20068;-60
2022/06/27 05:35:00;;;;;;;11.88;2.97;;;14.30;99.90;;;;;;5083019;28;20575;-60
2022/06/27 05:37:27;;;;;;;8.43;1.65;;;14.40;99.90;;;;;;5080923;28;20041;-59
2022/06/27 05:39:54;;;;;;;13.25;3.05;;;14.40;99.90;;;;;;5073645;28;20071;-59
2022/06/27 05:42:21;;;;;;;8.45;1.30;;;14.50;99.90;;;;;;5079240;28;20056;-59
2022/06/27 05:44:48;;;;;;;7.00;1.35;;;14.60;99.90;;;;;;5081767;28;20036;-60
2022/06/27 05:47:15;;;;;;;5.85;1.40;;;14.60;99.90;;;;;;5088101;28;20139;-60
2022/06/27 05:49:42;;;;;;;12.88;2.15;;;14.70;99.90;;;;;;5083480;28;20050;-60
2022/06/27 05:52:10;;;;;;;8.10;1.77;;;14.70;99.90;;;;;;5087710;28;20048;-60
2022/06/27 05:54:37;;;;;;;7.25;1.92;;;14.80;99.90;;;;;;5083691;28;20059;-60
2022/06/27 05:57:05;;;;;;;8.80;2.33;;;14.80;99.90;;;;;;5077396;28;20074;-59
2022/06/27 05:59:33;;;;;;;13.85;3.53;;;14.90;99.90;;;;;;5085483;28;20154;-59
2022/06/27 06:02:00;;;;;;;21.25;3.70;;;15.00;99.90;;;;;;5074659;28;20503;-59
2022/06/27 06:04:27;;;;;;;9.52;2.15;;;15.00;99.90;;;;;;5079376;28;20036;-60
2022/06/27 06:06:54;;;;;;;10.18;1.77;;;15.10;99.90;;;;;;5081263;28;20578;-60
2022/06/27 06:09:21;;;;;;;10.27;1.80;;;15.10;99.90;;;;;;5074358;28;20059;-60
2022/06/27 06:11:51;;;;;;;11.38;2.13;;;15.20;99.90;;;;;;5077738;28;20568;-59
2022/06/27 06:14:21;;;;;;;9.77;1.73;;;15.20;99.90;;;;;;5082600;28;20043;-60
2022/06/27 06:16:49;;;;;;;11.00;2.40;;;15.20;99.90;;;;;;5077687;28;20048;-60
2022/06/27 06:19:17;;;;;;;11.00;2.05;;;15.30;99.90;;;;;;5073722;28;20503;-60
2022/06/27 06:21:44;;;;;;;15.18;2.50;;;15.30;99.90;;;;;;5116999;27;20124;-60
2022/06/27 06:24:11;;;;;;;11.00;2.58;;;15.40;99.90;;;;;;5073986;28;20044;-60
2022/06/27 06:26:38;;;;;;;12.18;2.10;;;15.40;99.90;;;;;;5071614;28;20080;-60
2022/06/27 06:29:18;;;;;;;8.90;2.53;;;15.40;99.90;;;;;;5079285;28;20102;-60
2022/06/27 06:31:45;;;;;;;9.82;1.42;;;15.50;99.90;;;;;;5072624;28;20113;-59
2022/06/27 06:34:14;;;;;;;6.93;1.35;;;15.50;99.90;;;;;;5068052;28;20130;-59
2022/06/27 06:36:41;;;;;;;8.30;2.13;;;15.50;99.90;;;;;;5073128;28;20045;-58
2022/06/27 06:39:08;;;;;;;12.25;2.00;;;15.60;99.90;;;;;;5085785;28;20075;-59
2022/06/27 06:41:36;;;;;;;7.20;1.52;;;15.60;99.90;;;;;;5080779;28;20048;-59
2022/06/27 06:44:05;;;;;;;9.93;2.05;;;15.70;99.90;;;;;;5078490;28;20049;-59
2022/06/27 06:46:33;;;;;;;7.40;1.70;;;15.70;99.90;;;;;;5079817;28;20084;-58
2022/06/27 06:49:05;;;;;;;9.45;1.10;;;15.70;99.90;;;;;;5076182;28;20055;-59
2022/06/27 06:51:34;;;;;;;12.18;1.52;;;15.80;99.90;;;;;;5085964;28;20047;-57
2022/06/27 06:54:02;;;;;;;5.57;1.33;;;15.80;99.90;;;;;;5079233;28;20469;-58
2022/06/27 06:56:30;;;;;;;12.25;1.73;;;15.90;99.90;;;;;;5078096;28;20044;-57
2022/06/27 06:58:58;;;;;;;3.15;1.55;;;15.90;99.90;;;;;;5072648;28;20101;-56
2022/06/27 07:01:25;;;;;;;4.93;1.30;;;16.00;99.90;;;;;;5075619;28;20079;-59
2022/06/27 07:03:53;;;;;;;8.80;1.77;;;16.00;99.90;;;;;;5075214;28;20055;-59
2022/06/27 07:06:25;;;;;;;5.85;1.23;;;16.00;99.90;;;;;;5080452;28;20048;-57
2022/06/27 07:08:53;;;;;;;8.32;2.28;;;16.10;99.90;;;;;;5079497;28;20100;-58
2022/06/27 07:11:25;;;;;;;11.23;1.63;;;16.10;99.90;;;;;;5073803;28;20549;-57
2022/06/27 07:13:52;;;;;;;5.55;1.23;;;16.20;99.90;;;;;;5082177;28;20070;-59
2022/06/27 07:16:20;;;;;;;10.38;1.30;;;16.30;99.90;;;;;;5072760;28;20469;-58
2022/06/27 07:18:47;;;;;;;8.48;1.50;;;16.30;99.90;;;;;;5077423;28;20052;-58
2022/06/27 07:21:19;;;;;;;13.80;2.20;;;16.30;99.90;;;;;;5079162;28;20040;-59
2022/06/27 07:23:47;;;;;;;8.13;2.25;;;16.30;99.90;;;;;;5072657;28;20044;-55
2022/06/27 07:26:16;;;;;;;11.85;1.90;;;16.30;99.90;;;;;;5072548;28;20086;-58
2022/06/27 07:28:46;;;;;;;12.13;1.90;;;16.30;99.90;;;;;;5068520;28;20071;-57
2022/06/27 07:31:13;;;;;;;5.25;1.13;;;16.30;99.90;;;;;;5075934;28;20441;-58
2022/06/27 07:33:45;;;;;;;12.07;2.08;;;16.30;99.90;;;;;;5071147;28;20086;-57
2022/06/27 07:36:14;;;;;;;5.65;1.40;;;16.30;99.90;;;;;;5076838;28;20079;-57
2022/06/27 07:38:46;;;;;;;7.00;1.63;;;16.40;99.90;;;;;;5081054;28;20058;-58
2022/06/27 07:41:14;;;;;;;9.88;1.58;;;16.40;99.90;;;;;;5079044;28;20051;-57
2022/06/27 07:43:42;;;;;;;10.50;1.63;;;16.50;99.90;;;;;;5081758;28;20048;-58
2022/06/27 07:46:09;;;;;;;10.73;1.80;;;16.50;99.90;;;;;;5075268;28;20071;-60
2022/06/27 07:48:36;;;;;;;5.35;1.25;;;16.50;99.90;;;;;;5073186;28;20083;-58
2022/06/27 07:51:03;;;;;;;8.75;1.42;;;16.40;99.90;;;;;;5083622;28;20074;-59
2022/06/27 07:53:30;;;;;;;8.68;1.45;;;16.50;99.90;;;;;;5082424;28;20056;-57
2022/06/27 07:56:03;;;;;;;8.57;1.25;;;16.50;99.90;;;;;;5082031;28;20044;-57
2022/06/27 07:58:35;;;;;;;7.93;1.30;;;16.50;99.90;;;;;;5079158;28;20052;-58
2022/06/27 08:01:04;;;;;;;10.73;1.70;;;16.50;99.90;;;;;;5078666;28;20054;-57
2022/06/27 08:03:38;;;;;;;8.85;1.48;;;16.70;99.90;;;;;;5079205;28;20090;-57
2022/06/27 08:06:15;;;;;;;5.22;1.10;;;16.80;99.90;;;;;;5082962;28;20044;-58
2022/06/27 08:08:44;;;;;;;7.22;1.40;;;17.00;99.90;;;;;;5086208;28;20535;-57
2022/06/27 08:11:16;;;;;;;8.30;1.55;;;17.10;99.80;;;;;;5083172;28;20089;-57
2022/06/27 08:13:44;;;;;;;7.68;1.25;;;17.20;98.80;;;;;;5077489;28;20446;-58
2022/06/27 08:16:14;;;;;;;9.18;1.42;;;17.20;97.20;;;;;;5083177;28;20658;-57
2022/06/27 08:18:43;;;;;;;6.80;1.15;;;17.20;98.00;;;;;;5074052;28;20041;-57
2022/06/27 08:21:10;;;;;;;10.15;1.50;;;17.30;96.40;;;;;;5081420;28;20048;-58
2022/06/27 08:23:38;;;;;;;6.35;1.25;;;17.40;97.10;;;;;;5076868;28;20044;-56
2022/06/27 08:26:08;;;;;;;9.45;1.30;;;17.40;97.00;;;;;;5081711;28;20048;-58
2022/06/27 08:28:36;;;;;;;4.55;1.02;;;17.50;96.30;;;;;;5083791;28;20380;-58
2022/06/27 08:31:05;;;;;;;5.78;1.42;;;17.50;96.20;;;;;;5075804;28;20522;-57
2022/06/27 08:33:32;;;;;;;5.45;1.08;;;17.60;96.50;;;;;;5076503;28;20107;-59
2022/06/27 08:35:59;;;;;;;9.70;1.25;;;17.70;95.70;;;;;;5084968;28;20067;-59
2022/06/27 08:38:26;;;;;;;5.20;1.17;;;17.80;95.30;;;;;;5081879;28;20101;-59
2022/06/27 08:40:53;;;;;;;6.57;1.30;;;17.90;94.20;;;;;;5074701;28;20143;-59
2022/06/27 08:43:20;;;;;;;7.25;1.55;;;18.00;94.70;;;;;;5079972;28;20044;-57
2022/06/27 08:45:47;;;;;;;9.77;1.30;;;18.00;93.00;;;;;;5081415;28;20120;-59
2022/06/27 08:48:14;;;;;;;5.40;1.38;;;18.00;94.30;;;;;;5080053;28;20492;-59
2022/06/27 08:50:42;;;;;;;7.45;1.70;;;18.10;94.50;;;;;;5083795;28;20044;-60
2022/06/27 08:53:10;;;;;;;4.82;1.48;;;18.10;93.70;;;;;;5081493;28;20049;-58
2022/06/27 08:55:37;;;;;;;4.25;1.92;;;18.20;93.10;;;;;;5072732;28;20043;-59
2022/06/27 08:58:10;;;;;;;3.30;1.33;;;18.20;93.20;;;;;;5077628;28;20594;-57
2022/06/27 09:00:40;;;;;;;5.00;1.10;;;18.30;93.40;;;;;;5088605;28;20075;-59
2022/06/27 09:03:08;;;;;;;3.38;1.17;;;18.50;92.80;;;;;;5077159;28;20048;-57
2022/06/27 09:05:36;;;;;;;3.50;0.75;;;18.70;90.70;;;;;;5079734;28;20530;-59
2022/06/27 09:08:04;;;;;;;2.90;0.80;;;18.90;91.20;;;;;;5069696;28;20056;-58
2022/06/27 09:10:42;;;;;;;7.93;1.65;;;19.20;88.80;;;;;;5076674;28;20503;-58
2022/06/27 09:13:13;;;;;;;10.88;1.10;;;19.30;89.60;;;;;;5083140;28;20130;-58
2022/06/27 09:15:45;;;;;;;12.20;1.33;;;19.40;89.20;;;;;;5077379;28;20054;-58
2022/06/27 09:18:14;;;;;;;7.18;1.35;;;19.40;90.00;;;;;;5077044;28;20049;-59
2022/06/27 09:20:46;;;;;;;7.45;1.65;;;19.30;90.10;;;;;;5077521;28;20036;-59
2022/06/27 09:23:32;;;;;;;4.30;1.15;;;19.20;90.70;;;;;;5078208;28;20530;-59
2022/06/27 09:26:05;;;;;;;11.38;1.48;;;19.10;86.70;;;;;;5073249;28;20124;-58
2022/06/27 09:29:09;;;;;;;7.18;1.58;;;19.10;89.30;;;;;;5081338;28;20130;-58
2022/06/27 09:31:42;;;;;;;3.53;0.88;;;19.00;84.00;;;;;;5073319;28;20090;-56
2022/06/27 09:34:16;;;;;;;6.97;1.30;;;19.20;87.70;;;;;;5081651;28;20044;-57
2022/06/27 09:37:03;;;;;;;3.28;1.23;;;19.40;83.00;;;;;;5080056;28;20509;-57
2022/06/27 09:39:39;;;;;;;8.25;1.23;;;19.60;80.90;;;;;;5071871;28;20048;-58
2022/06/27 09:42:09;;;;;;;4.18;1.38;;;19.70;82.80;;;;;;5074974;28;20215;-57
2022/06/27 09:44:40;;;;;;;5.13;0.93;;;19.70;83.50;;;;;;5082304;28;20073;-57
2022/06/27 09:47:11;;;;;;;7.38;1.45;;;19.70;83.80;;;;;;5080390;28;20091;-58
2022/06/27 09:49:41;;;;;;;5.53;0.73;;;19.70;83.30;;;;;;5076011;28;20093;-56
2022/06/27 09:52:10;;;;;;;11.68;2.00;;;20.00;85.90;;;;;;5083822;28;20044;-58
2022/06/27 09:54:38;;;;;;;3.47;0.98;;;20.20;83.40;;;;;;5075685;28;20080;-57
2022/06/27 09:57:05;;;;;;;6.10;1.30;;;20.10;83.20;;;;;;5079465;28;20094;-56
2022/06/27 09:59:40;;;;;;;8.85;1.20;;;20.10;82.40;;;;;;5057687;28;20052;-57
2022/06/27 10:02:07;;;;;;;6.65;1.08;;;20.00;81.70;;;;;;5073868;28;20063;-57
2022/06/27 10:04:37;;;;;;;4.32;1.17;;;19.80;82.20;;;;;;5075990;28;20414;-57
2022/06/27 10:07:06;;;;;;;7.38;1.42;;;19.50;82.30;;;;;;5078965;28;20049;-56
2022/06/27 10:09:35;;;;;;;4.70;1.58;;;19.60;82.20;;;;;;5074733;28;20142;-58
2022/06/27 10:12:27;;;;;;;3.90;1.05;;;19.80;83.40;;;;;;5073061;28;20045;-58
2022/06/27 10:15:09;;;;;;;5.13;0.95;;;20.20;80.80;;;;;;5078064;28;20106;-57
2022/06/27 10:17:43;;;;;;;3.75;1.25;;;20.60;80.50;;;;;;5072778;28;20044;-56
2022/06/27 10:20:12;;;;;;;14.38;1.77;;;20.40;78.30;;;;;;5079955;28;20098;-58
2022/06/27 10:22:39;;;;;;;4.55;0.98;;;20.00;82.10;;;;;;5073719;28;20472;-58
2022/06/27 10:25:25;;;;;;;6.03;0.82;;;19.90;80.90;;;;;;5078752;28;20049;-58
2022/06/27 10:28:07;;;;;;;7.15;1.10;;;20.30;80.30;;;;;;5081795;28;20048;-59
2022/06/27 10:30:43;;;;;;;6.82;1.60;;;20.50;79.70;;;;;;5079949;28;20071;-58
2022/06/27 10:33:25;;;;;;;7.38;1.50;;;20.50;79.80;;;;;;5072083;28;20098;-57
2022/06/27 10:35:59;;;;;;;6.00;1.92;;;20.50;79.40;;;;;;5081023;28;20206;-58
2022/06/27 10:38:31;;;;;;;7.88;1.42;;;20.50;79.50;;;;;;5075870;28;20495;-57
2022/06/27 10:41:05;;;;;;;7.23;1.30;;;20.30;80.10;;;;;;5075753;28;20346;-58
2022/06/27 10:43:51;;;;;;;6.70;1.35;;;20.10;82.10;;;;;;5072334;28;20309;-57
2022/06/27 10:46:18;;;;;;;6.53;1.33;;;20.30;79.60;;;;;;5079602;28;20051;-58
2022/06/27 10:48:50;;;;;;;6.22;1.20;;;20.40;80.90;;;;;;5075890;28;20058;-58
2022/06/27 10:51:27;;;;;;;7.05;1.05;;;20.30;79.00;;;;;;5085618;28;20040;-59
2022/06/27 10:54:06;;;;;;;7.22;1.30;;;20.00;80.10;;;;;;5082734;28;20052;-57
2022/06/27 10:56:53;;;;;;;4.72;1.15;;;19.90;80.20;;;;;;5075539;28;20072;-57
2022/06/27 10:59:25;;;;;;;8.82;1.25;;;19.70;81.20;;;;;;5080129;28;20527;-56
2022/06/27 11:02:00;;;;;;;9.55;1.38;;;19.50;83.70;;;;;;5075394;28;20060;-59
2022/06/27 11:04:32;;;;;;;9.57;2.13;;;19.50;85.10;;;;;;5078760;28;20078;-58
2022/06/27 11:07:04;;;;;;;4.18;0.68;;;19.60;84.70;;;;;;5080268;28;20140;-58
2022/06/27 11:09:37;;;;;;;5.97;0.88;;;19.50;80.50;;;;;;5076037;28;20079;-56
2022/06/27 11:12:08;;;;;;;4.15;0.77;;;19.70;82.70;;;;;;5075086;28;20083;-57
2022/06/27 11:14:47;;;;;;;1.75;0.32;;;19.80;84.10;;;;;;5080394;28;20131;-57
2022/06/27 11:17:43;;;;;;;2.75;0.73;;;19.90;81.60;;;;;;5080227;28;20499;-55
2022/06/27 11:20:23;;;;;;;3.13;0.70;;;20.00;82.60;;;;;;5078703;28;20048;-56
2022/06/27 11:23:03;;;;;;;3.10;1.13;;;20.20;83.50;;;;;;5084254;28;20135;-58
2022/06/27 11:25:30;;;;;;;2.53;0.63;;;20.20;84.30;;;;;;5075322;28;20044;-59
2022/06/27 11:27:58;;;;;;;1.83;0.85;;;20.30;84.20;;;;;;5080019;28;20127;-59
2022/06/27 11:33:26;;;;;;;0.70;0.22;;;20.40;83.10;;;;;;5083979;28;20083;-55
2022/06/27 11:35:54;;;;;;;1.60;0.20;;;20.60;80.20;;;;;;5070457;28;20068;-59
2022/06/27 11:38:24;;;;;;;1.10;0.30;;;20.60;81.80;;;;;;5079165;28;20076;-58
2022/06/27 11:41:06;;;;;;;0.30;0.10;;;20.70;81.80;;;;;;5079362;28;20048;-58
2022/06/27 11:43:48;;;;;;;2.70;0.30;;;20.60;79.30;;;;;;5086730;28;20080;-57
2022/06/27 11:46:31;;;;;;;3.92;1.42;;;20.40;80.30;;;;;;5084213;28;20509;-59
2022/06/27 11:49:01;;;;;;;0.85;0.40;;;20.40;81.00;;;;;;5080384;28;20044;-58
2022/06/27 11:51:33;;;;;;;2.85;0.30;;;20.20;82.30;;;;;;5087579;28;20040;-57
2022/06/27 11:54:03;;;;;;;2.05;0.40;;;19.90;82.50;;;;;;5083095;28;20060;-58
2022/06/27 11:56:31;;;;;;;0.40;0.20;;;19.60;84.30;;;;;;5083329;28;20044;-57
2022/06/27 11:58:58;;;;;;;3.50;0.30;;;19.60;83.50;;;;;;5078833;28;20293;-57
2022/06/27 12:01:25;;;;;;;0.73;0.20;;;19.70;85.40;;;;;;5081210;28;20492;-58
2022/06/27 12:04:08;;;;;;;1.60;0.35;;;19.60;85.80;;;;;;5077442;28;20388;-59
2022/06/27 12:06:45;;;;;;;0.50;0.20;;;19.60;84.40;;;;;;5081232;28;20053;-59
2022/06/27 12:09:11;;;;;;;0.73;0.30;;;19.80;85.30;;;;;;5083623;28;20131;-59
2022/06/27 12:12:05;;;;;;;3.10;0.85;;;19.90;85.80;;;;;;5079832;28;20526;-60
2022/06/27 12:14:42;;;;;;;;;;;19.70;86.30;;;;;;5078851;28;20473;-57
2022/06/27 12:17:10;;;;;;;1.45;0.32;;;19.40;89.30;;;;;;5079348;28;19920;-58
2022/06/27 12:19:37;;;;;;;1.63;0.60;;;19.30;89.50;;;;;;5082056;28;20052;-59
2022/06/27 12:22:03;;;;;;;1.20;0.57;;;19.30;90.70;;;;;;5080224;28;20122;-58
2022/06/27 12:24:50;;;;;;;2.88;0.60;;;19.60;90.80;;;;;;5077769;28;20066;-60
2022/06/27 12:27:17;;;;;;;2.15;0.47;;;20.00;90.50;;;;;;5080988;28;20041;-57
2022/06/27 12:29:43;;;;;;;5.95;0.63;;;20.20;90.70;;;;;;5083182;28;20151;-58
2022/06/27 12:32:12;;;;;;;2.90;0.32;;;20.30;90.30;;;;;;5076122;28;20040;-59
2022/06/27 12:34:39;;;;;;;1.85;0.63;;;20.30;90.40;;;;;;5079188;28;20048;-56
2022/06/27 12:37:06;;;;;;;3.15;0.52;;;20.40;90.50;;;;;;5084196;28;20098;-58
2022/06/27 12:39:33;;;;;;;2.22;0.80;;;20.60;90.30;;;;;;5079638;28;20105;-64
2022/06/27 12:42:00;;;;;;;0.20;0.20;;;20.70;89.90;;;;;;5076858;28;20041;-58
2022/06/27 12:44:27;;;;;;;3.60;0.40;;;20.60;89.70;;;;;;5083076;28;20137;-59
2022/06/27 12:46:54;;;;;;;2.45;0.35;;;20.70;89.30;;;;;;5083246;28;20093;-59
2022/06/27 12:49:23;;;;;;;3.35;0.50;;;20.90;88.30;;;;;;5073162;28;20051;-58
2022/06/27 12:51:50;;;;;;;2.42;0.30;;;20.90;86.20;;;;;;5080421;28;20131;-59
2022/06/27 12:54:16;;;;;;;0.68;0.38;;;20.90;86.60;;;;;;5085658;28;20067;-59
2022/06/27 12:56:46;;;;;;;1.15;0.22;;;20.80;86.00;;;;;;5080127;28;20094;-57
2022/06/27 12:59:13;;;;;;;1.67;0.30;;;20.70;85.70;;;;;;5072190;28;20079;-59
2022/06/27 13:01:40;;;;;;;2.80;0.50;;;20.60;87.60;;;;;;5077798;28;20083;-58
2022/06/27 13:04:07;;;;;;;8.10;1.77;;;20.70;87.90;;;;;;5075769;28;20056;-59